createdAt,value
2022-11-21T00:01:22.768Z,55.47
2022-11-21T00:03:50.039Z,42.47
2022-11-21T00:06:18.000Z,55.30
2022-11-21T00:08:45.229Z,55.47
2022-11-21T00:11:13.049Z,53.63
2022-11-21T00:13:40.270Z,55.23
2022-11-21T00:16:10.421Z,49.80
2022-11-21T00:18:38.220Z,53.77
2022-11-21T00:21:19.465Z,53.33
2022-11-21T00:23:47.454Z,54.73
2022-11-21T00:26:16.519Z,70.22
2022-11-21T00:28:43.994Z,75.57
2022-11-21T00:31:20.329Z,83.83
2022-11-21T00:33:47.285Z,121.23
2022-11-21T00:36:14.493Z,91.03
2022-11-21T00:38:41.237Z,103.03
2022-11-21T00:41:08.318Z,140.30
2022-11-21T00:43:35.371Z,122.20
2022-11-21T00:46:03.501Z,67.80
2022-11-21T00:48:31.927Z,125.23
2022-11-21T00:51:00.711Z,255.05
2022-11-21T00:53:28.351Z,136.80
2022-11-21T00:55:55.672Z,196.53
2022-11-21T00:58:22.442Z,215.83
2022-11-21T01:00:49.568Z,123.33
2022-11-21T01:03:16.433Z,89.30
2022-11-21T01:05:43.650Z,80.63
2022-11-21T01:08:10.442Z,91.87
2022-11-21T01:10:37.522Z,123.93
2022-11-21T01:13:04.502Z,102.97
2022-11-21T01:15:31.722Z,131.90
2022-11-21T01:17:58.571Z,117.90
2022-11-21T01:20:26.072Z,93.37
2022-11-21T01:22:52.984Z,73.90
2022-11-21T01:25:20.606Z,113.23
2022-11-21T01:27:47.406Z,150.03
2022-11-21T01:30:15.033Z,74.63
2022-11-21T01:32:41.786Z,74.63
2022-11-21T01:35:09.238Z,61.87
2022-11-21T01:37:36.152Z,177.30
2022-11-21T01:40:03.698Z,85.17
2022-11-21T01:42:54.210Z,60.40
2022-11-21T01:45:49.259Z,63.77
2022-11-21T01:48:16.219Z,46.03
2022-11-21T01:50:43.408Z,41.03
2022-11-21T01:53:10.232Z,54.33
2022-11-21T01:55:37.711Z,52.57
2022-11-21T01:58:05.156Z,52.77
2022-11-21T02:00:37.866Z,52.47
2022-11-21T02:03:12.597Z,49.20
2022-11-21T02:05:40.966Z,52.80
2022-11-21T02:08:19.481Z,58.70
2022-11-21T02:11:26.138Z,49.60
2022-11-21T02:13:53.228Z,46.77
2022-11-21T02:16:20.323Z,52.07
2022-11-21T02:18:47.113Z,50.73
2022-11-21T02:21:43.559Z,47.43
2022-11-21T02:24:20.476Z,50.57
2022-11-21T02:26:48.926Z,48.27
2022-11-21T02:29:16.564Z,57.90
2022-11-21T02:31:43.665Z,45.83
2022-11-21T02:34:10.478Z,47.60
2022-11-21T02:36:40.201Z,41.80
2022-11-21T02:39:09.642Z,49.87
2022-11-21T02:41:39.461Z,48.33
2022-11-21T02:44:11.482Z,44.77
2022-11-21T02:46:47.725Z,46.60
2022-11-21T02:49:16.874Z,44.57
2022-11-21T02:51:43.958Z,49.97
2022-11-21T02:54:10.697Z,38.80
2022-11-21T02:56:37.764Z,43.80
2022-11-21T02:59:04.672Z,43.87
2022-11-21T03:01:31.792Z,42.37
2022-11-21T03:03:58.599Z,37.17
2022-11-21T03:06:25.629Z,33.63
2022-11-21T03:08:52.429Z,43.67
2022-11-21T03:11:19.542Z,41.50
2022-11-21T03:13:46.336Z,40.00
2022-11-21T03:16:13.367Z,38.23
2022-11-21T03:18:40.161Z,43.23
2022-11-21T03:21:07.242Z,35.83
2022-11-21T03:23:34.045Z,37.30
2022-11-21T03:26:01.112Z,38.00
2022-11-21T03:28:27.903Z,39.53
2022-11-21T03:30:55.230Z,34.87
2022-11-21T03:33:22.081Z,39.43
2022-11-21T03:35:49.243Z,38.50
2022-11-21T03:38:16.017Z,40.60
2022-11-21T03:40:43.014Z,38.63
2022-11-21T03:43:09.814Z,38.60
2022-11-21T03:45:36.835Z,36.37
2022-11-21T03:48:03.746Z,32.97
2022-11-21T03:50:30.970Z,33.07
2022-11-21T03:52:57.778Z,33.23
2022-11-21T03:57:45.366Z,32.83
2022-11-21T04:00:13.313Z,36.97
2022-11-21T04:02:40.105Z,30.57
2022-11-21T04:05:07.357Z,34.63
2022-11-21T04:07:34.094Z,32.37
2022-11-21T04:10:01.149Z,30.07
2022-11-21T04:12:27.971Z,28.60
2022-11-21T04:14:55.495Z,37.10
2022-11-21T04:17:22.265Z,34.90
2022-11-21T04:19:49.405Z,28.20
2022-11-21T04:22:16.148Z,29.43
2022-11-21T04:24:43.283Z,31.80
2022-11-21T04:27:10.100Z,27.20
2022-11-21T04:29:37.182Z,25.10
2022-11-21T04:32:04.077Z,29.80
2022-11-21T04:34:31.241Z,23.63
2022-11-21T04:36:58.076Z,26.30
2022-11-21T04:39:25.093Z,27.97
2022-11-21T04:41:51.823Z,29.40
2022-11-21T04:44:18.927Z,33.97
2022-11-21T04:46:45.647Z,31.70
2022-11-21T04:49:12.722Z,24.10
2022-11-21T04:51:39.453Z,40.00
2022-11-21T04:54:06.550Z,44.83
2022-11-21T04:56:33.288Z,32.73
2022-11-21T04:59:00.377Z,34.67
2022-11-21T05:01:27.175Z,39.63
2022-11-21T05:03:54.306Z,41.17
2022-11-21T05:06:21.085Z,47.63
2022-11-21T05:08:52.706Z,46.73
2022-11-21T05:11:39.538Z,50.73
2022-11-21T05:14:06.637Z,40.20
2022-11-21T05:16:34.156Z,46.90
2022-11-21T05:19:01.356Z,46.40
2022-11-21T05:21:28.083Z,51.77
2022-11-21T05:23:55.117Z,38.90
2022-11-21T05:26:21.906Z,40.87
2022-11-21T05:28:49.008Z,44.87
2022-11-21T05:31:15.764Z,45.47
2022-11-21T05:33:42.908Z,64.97
2022-11-21T05:36:09.739Z,56.67
2022-11-21T05:38:36.803Z,101.03
2022-11-21T05:41:03.580Z,84.13
2022-11-21T05:43:45.849Z,61.50
2022-11-21T05:46:20.931Z,88.70
2022-11-21T05:48:49.024Z,65.90
2022-11-21T05:51:17.169Z,220.27
2022-11-21T05:53:44.548Z,107.68
2022-11-21T05:56:13.914Z,98.57
2022-11-21T05:58:41.894Z,58.70
2022-11-21T06:01:11.361Z,59.13
2022-11-21T06:03:40.973Z,96.20
2022-11-21T06:06:09.239Z,175.00
2022-11-21T06:08:40.711Z,130.73
2022-11-21T06:11:09.150Z,75.00
2022-11-21T06:13:37.127Z,128.02
2022-11-21T06:16:08.227Z,58.87
2022-11-21T06:18:42.959Z,79.30
2022-11-21T06:21:21.241Z,135.90
2022-11-21T06:23:51.393Z,94.32
2022-11-21T06:26:21.537Z,72.83
2022-11-21T06:28:49.065Z,68.20
2022-11-21T06:31:17.045Z,56.17
2022-11-21T06:33:45.392Z,57.67
2022-11-21T06:36:14.811Z,46.60
2022-11-21T06:38:42.683Z,47.03
2022-11-21T06:41:17.380Z,67.07
2022-11-21T06:43:45.139Z,103.07
2022-11-21T06:46:12.593Z,84.97
2022-11-21T06:48:40.346Z,82.07
2022-11-21T06:51:16.433Z,101.63
2022-11-21T06:53:43.642Z,70.13
2022-11-21T06:56:10.465Z,64.17
2022-11-21T06:58:37.632Z,127.77
2022-11-21T07:01:09.919Z,66.60
2022-11-21T07:03:37.338Z,246.97
2022-11-21T07:06:04.985Z,101.03
2022-11-21T07:08:33.826Z,101.60
2022-11-21T07:13:53.231Z,109.43
2022-11-21T07:16:20.068Z,97.77
2022-11-21T07:18:47.113Z,46.37
2022-11-21T07:21:13.962Z,64.90
2022-11-21T07:23:41.077Z,35.30
2022-11-21T07:26:08.587Z,63.97
2022-11-21T07:28:35.796Z,53.37
2022-11-21T07:31:08.563Z,38.83
2022-11-21T07:33:39.001Z,54.90
2022-11-21T07:36:06.021Z,34.80
2022-11-21T07:38:33.053Z,30.60
2022-11-21T07:40:59.776Z,33.13
2022-11-21T07:43:27.101Z,38.00
2022-11-21T07:45:53.941Z,27.27
2022-11-21T07:48:21.213Z,31.50
2022-11-21T07:50:48.131Z,47.03
2022-11-21T07:53:15.239Z,51.47
2022-11-21T07:55:42.612Z,33.43
2022-11-21T07:58:12.470Z,44.40
2022-11-21T08:00:40.633Z,20.87
2022-11-21T08:03:08.010Z,20.55
2022-11-21T08:05:38.760Z,18.00
2022-11-21T08:08:06.944Z,17.03
2022-11-21T08:10:34.136Z,19.30
2022-11-21T08:13:01.235Z,55.80
2022-11-21T08:15:28.024Z,24.17
2022-11-21T08:17:55.048Z,33.27
2022-11-21T08:20:21.929Z,29.93
2022-11-21T08:22:49.018Z,28.53
2022-11-21T08:25:15.861Z,27.47
2022-11-21T08:27:42.916Z,24.20
2022-11-21T08:30:12.039Z,19.90
2022-11-21T08:32:39.133Z,17.42
2022-11-21T08:35:06.459Z,18.83
2022-11-21T08:37:33.506Z,17.23
2022-11-21T08:40:00.870Z,16.63
2022-11-21T08:42:28.115Z,16.80
2022-11-21T08:44:54.931Z,12.48
2022-11-21T08:47:22.460Z,12.70
2022-11-21T08:49:49.338Z,14.48
2022-11-21T08:52:17.532Z,15.38
2022-11-21T08:54:45.165Z,13.13
2022-11-21T08:57:12.567Z,16.85
2022-11-21T08:59:39.364Z,26.95
2022-11-21T09:02:06.931Z,29.92
2022-11-21T09:04:33.801Z,19.65
2022-11-21T09:07:02.129Z,18.92
2022-11-21T09:09:28.977Z,13.20
2022-11-21T09:11:56.006Z,9.48
2022-11-21T09:14:41.578Z,8.85
2022-11-21T09:17:32.038Z,10.35
2022-11-21T09:19:58.961Z,11.32
2022-11-21T09:22:26.403Z,11.50
2022-11-21T09:24:53.286Z,10.55
2022-11-21T09:27:20.473Z,7.95
2022-11-21T09:29:53.691Z,10.27
2022-11-21T09:32:21.555Z,15.35
2022-11-21T09:34:48.598Z,19.02
2022-11-21T09:37:15.805Z,20.70
2022-11-21T09:39:42.578Z,21.23
2022-11-21T09:42:33.698Z,17.90
2022-11-21T09:45:25.785Z,15.32
2022-11-21T09:47:53.328Z,15.68
2022-11-21T09:50:30.647Z,16.65
2022-11-21T09:53:14.823Z,13.95
2022-11-21T09:55:55.712Z,15.00
2022-11-21T09:58:48.884Z,15.55
2022-11-21T10:01:17.142Z,19.08
2022-11-21T10:03:47.701Z,22.10
2022-11-21T10:06:24.400Z,25.00
2022-11-21T10:09:00.696Z,20.73
2022-11-21T10:12:02.392Z,18.13
2022-11-21T10:14:35.131Z,16.92
2022-11-21T10:17:19.461Z,13.10
2022-11-21T10:20:04.979Z,15.00
2022-11-21T10:22:37.369Z,21.25
2022-11-21T10:25:15.267Z,13.05
2022-11-21T10:27:54.253Z,13.00
2022-11-21T10:32:58.366Z,12.32
2022-11-21T10:35:31.893Z,12.80
2022-11-21T10:38:01.733Z,12.45
2022-11-21T10:40:39.430Z,10.00
2022-11-21T10:43:43.170Z,11.65
2022-11-21T10:46:10.262Z,9.73
2022-11-21T10:48:37.036Z,15.48
2022-11-21T10:51:12.984Z,11.82
2022-11-21T10:54:03.191Z,11.45
2022-11-21T10:56:35.183Z,15.73
2022-11-21T10:59:14.241Z,12.65
2022-11-21T11:04:27.825Z,12.00
2022-11-21T11:07:27.807Z,11.15
2022-11-21T11:10:26.775Z,18.88
2022-11-21T11:16:15.612Z,12.55
2022-11-21T11:18:55.748Z,11.25
2022-11-21T11:21:24.831Z,12.35
2022-11-21T11:23:54.101Z,16.00
2022-11-21T11:26:25.595Z,18.08
2022-11-21T11:28:52.845Z,16.77
2022-11-21T11:31:19.936Z,20.20
2022-11-21T11:33:53.390Z,19.37
2022-11-21T11:36:53.882Z,22.03
2022-11-21T11:39:38.974Z,19.77
2022-11-21T11:42:27.209Z,34.57
2022-11-21T11:45:31.330Z,51.45
2022-11-21T11:48:00.318Z,37.23
2022-11-21T11:50:32.417Z,39.43
2022-11-21T11:53:17.728Z,29.53
2022-11-21T11:55:56.721Z,19.77
2022-11-21T11:58:45.034Z,19.40
2022-11-21T12:01:19.085Z,21.17
2022-11-21T12:03:58.390Z,20.63
2022-11-21T12:06:46.810Z,20.53
2022-11-21T12:12:11.464Z,19.80
2022-11-21T12:15:12.087Z,29.43
2022-11-21T12:17:47.081Z,45.50
2022-11-21T12:20:23.261Z,25.60
2022-11-21T12:22:53.582Z,23.10
2022-11-21T12:25:27.885Z,19.57
2022-11-21T12:27:56.311Z,32.87
2022-11-21T12:30:31.807Z,27.10
2022-11-21T12:33:22.358Z,25.50
2022-11-21T12:36:16.725Z,25.77
2022-11-21T12:38:58.404Z,60.80
2022-11-21T12:42:07.789Z,54.13
2022-11-21T12:44:59.761Z,29.63
2022-11-21T12:47:58.367Z,31.97
2022-11-21T12:50:58.938Z,33.40
2022-11-21T12:54:08.396Z,31.77
2022-11-21T12:56:49.669Z,41.10
2022-11-21T12:59:17.114Z,36.80
2022-11-21T13:02:03.045Z,37.80
2022-11-21T13:04:37.757Z,31.70
2022-11-21T13:07:06.267Z,38.87
2022-11-21T13:09:45.787Z,42.88
2022-11-21T13:12:19.637Z,46.47
2022-11-21T13:15:06.026Z,57.73
2022-11-21T13:17:34.763Z,49.27
2022-11-21T13:20:23.665Z,37.67
2022-11-21T13:22:55.907Z,39.83
2022-11-21T13:25:31.920Z,49.40
2022-11-21T13:28:14.704Z,54.17
2022-11-21T13:30:54.812Z,38.13
2022-11-21T13:33:40.070Z,31.47
2022-11-21T13:36:10.476Z,35.57
2022-11-21T13:38:55.396Z,51.93
2022-11-21T13:41:52.708Z,54.93
2022-11-21T13:44:31.821Z,45.37
2022-11-21T13:47:10.988Z,33.95
2022-11-21T13:49:44.093Z,35.87
2022-11-21T13:52:20.083Z,36.23
2022-11-21T13:55:28.684Z,36.57
2022-11-21T13:58:20.400Z,35.00
2022-11-21T14:00:54.095Z,150.57
2022-11-21T14:03:58.090Z,84.47
2022-11-21T14:06:40.003Z,109.83
2022-11-21T14:09:12.948Z,111.53
2022-11-21T14:11:52.033Z,86.00
2022-11-21T14:14:47.606Z,150.30
2022-11-21T14:17:25.628Z,87.93
2022-11-21T14:19:55.693Z,30.60
2022-11-21T14:22:42.398Z,23.97
2022-11-21T14:25:18.639Z,149.30
2022-11-21T14:27:49.585Z,31.03
2022-11-21T14:30:46.088Z,32.13
2022-11-21T14:33:32.316Z,22.00
2022-11-21T14:36:03.508Z,23.77
2022-11-21T14:38:35.266Z,19.23
2022-11-21T14:41:26.855Z,16.40
2022-11-21T14:43:56.968Z,20.10
2022-11-21T14:46:28.652Z,21.83
2022-11-21T14:48:57.529Z,22.63
2022-11-21T14:51:25.641Z,22.75
2022-11-21T14:53:53.972Z,28.67
2022-11-21T14:56:24.755Z,28.67
2022-11-21T14:58:57.937Z,22.23
2022-11-21T15:01:32.872Z,23.63
2022-11-21T15:04:02.967Z,22.57
2022-11-21T15:06:33.558Z,21.33
2022-11-21T15:10:11.565Z,19.23
2022-11-21T15:11:50.510Z,25.83
2022-11-21T15:14:27.593Z,20.50
2022-11-21T15:16:56.692Z,18.30
2022-11-21T15:19:26.665Z,16.80
2022-11-21T15:21:56.555Z,23.33
2022-11-21T15:24:40.244Z,21.33
2022-11-21T15:27:28.714Z,23.40
2022-11-21T15:30:19.560Z,17.63
2022-11-21T15:33:02.660Z,20.73
2022-11-21T15:35:38.542Z,25.63
2022-11-21T15:38:30.046Z,20.10
2022-11-21T15:41:09.497Z,20.07
2022-11-21T15:43:48.297Z,23.67
2022-11-21T15:46:26.650Z,26.43
2022-11-21T15:48:58.672Z,21.83
2022-11-21T15:51:59.645Z,23.70
2022-11-21T15:54:20.897Z,27.37
2022-11-21T15:56:48.760Z,24.00
2022-11-21T15:59:16.493Z,23.10
2022-11-21T16:01:43.559Z,22.13
2022-11-21T16:04:12.294Z,33.07
2022-11-21T16:09:06.198Z,22.50
2022-11-21T16:11:37.391Z,24.20
2022-11-21T16:14:06.154Z,25.73
2022-11-21T16:19:01.112Z,31.93
2022-11-21T16:21:28.145Z,20.73
2022-11-21T16:23:55.887Z,25.40
2022-11-21T16:26:27.923Z,24.63
2022-11-21T16:28:55.686Z,34.53
2022-11-21T16:31:25.834Z,36.75
2022-11-21T16:33:52.905Z,26.30
2022-11-21T16:36:25.705Z,28.47
2022-11-21T16:38:53.500Z,25.30
2022-11-21T16:41:22.758Z,20.07
2022-11-21T16:43:51.418Z,39.08
2022-11-21T16:46:19.704Z,35.95
2022-11-21T16:48:47.044Z,27.47
2022-11-21T16:51:17.014Z,27.50
2022-11-21T16:53:45.234Z,27.63
2022-11-21T16:56:12.798Z,29.05
2022-11-21T16:58:40.865Z,25.63
2022-11-21T17:01:19.395Z,22.13
2022-11-21T17:03:47.656Z,21.90
2022-11-21T17:06:18.064Z,33.50
2022-11-21T17:08:45.099Z,25.27
2022-11-21T17:11:12.491Z,24.50
2022-11-21T17:13:39.726Z,30.90
2022-11-21T17:16:08.268Z,27.97
2022-11-21T17:18:35.277Z,36.85
2022-11-21T17:21:10.995Z,29.70
2022-11-21T17:23:39.760Z,30.17
2022-11-21T17:28:35.168Z,27.30
2022-11-21T17:31:13.645Z,35.90
2022-11-21T17:33:40.712Z,25.33
2022-11-21T17:36:11.887Z,26.33
2022-11-21T17:38:39.909Z,30.27
2022-11-21T17:41:09.881Z,33.90
2022-11-21T17:43:36.787Z,32.70
2022-11-21T17:46:15.310Z,32.73
2022-11-21T17:48:42.137Z,30.73
2022-11-21T17:51:12.991Z,33.37
2022-11-21T17:53:41.968Z,41.70
2022-11-21T17:56:12.641Z,32.00
2022-11-21T17:58:39.845Z,32.80
2022-11-21T18:01:08.778Z,36.93
2022-11-21T18:03:37.236Z,34.85
2022-11-21T18:06:06.858Z,24.90
2022-11-21T18:08:38.752Z,29.03
2022-11-21T18:11:07.353Z,28.17
2022-11-21T18:13:35.086Z,31.80
2022-11-21T18:16:05.163Z,30.37
2022-11-21T18:18:33.630Z,29.27
2022-11-21T18:21:12.771Z,30.33
2022-11-21T18:23:40.108Z,34.10
2022-11-21T18:26:11.976Z,29.50
2022-11-21T18:28:38.993Z,26.23
2022-11-21T18:31:14.692Z,27.30
2022-11-21T18:33:42.025Z,37.63
2022-11-21T18:36:11.008Z,34.33
2022-11-21T18:38:48.784Z,31.85
2022-11-21T18:41:24.802Z,31.37
2022-11-21T18:44:02.852Z,38.93
2022-11-21T18:46:31.724Z,33.13
2022-11-21T18:49:05.455Z,33.15
2022-11-21T18:51:34.540Z,33.43
2022-11-21T18:54:05.359Z,81.97
2022-11-21T18:56:32.727Z,104.60
2022-11-21T18:58:59.691Z,79.23
2022-11-21T19:01:29.155Z,38.20
2022-11-21T19:03:57.469Z,45.63
2022-11-21T19:06:25.904Z,41.45
2022-11-21T19:08:54.704Z,37.10
2022-11-21T19:13:52.197Z,32.97
2022-11-21T19:16:21.742Z,35.83
2022-11-21T19:19:11.723Z,57.03
2022-11-21T19:21:39.401Z,42.22
2022-11-21T19:24:07.433Z,42.50
2022-11-21T19:26:34.470Z,39.55
2022-11-21T19:29:01.678Z,37.33
2022-11-21T19:31:28.754Z,36.90
2022-11-21T19:33:55.519Z,45.37
2022-11-21T19:36:23.972Z,46.43
2022-11-21T19:38:51.944Z,50.38
2022-11-21T19:41:25.902Z,46.28
2022-11-21T19:43:55.400Z,70.03
2022-11-21T19:46:33.984Z,47.47
2022-11-21T19:49:01.948Z,48.25
2022-11-21T19:51:37.746Z,43.70
2022-11-21T19:54:06.233Z,41.03
2022-11-21T19:56:33.968Z,44.72
2022-11-21T19:59:00.948Z,54.40
2022-11-21T20:01:30.227Z,60.97
2022-11-21T20:06:37.559Z,53.40
2022-11-21T20:09:07.864Z,58.33
2022-11-21T20:11:35.421Z,54.30
2022-11-21T20:14:02.220Z,35.73
2022-11-21T20:16:32.410Z,44.30
2022-11-21T20:19:01.622Z,45.83
2022-11-21T20:21:29.808Z,46.47
2022-11-21T20:23:56.900Z,49.63
2022-11-21T20:26:24.721Z,45.67
2022-11-21T20:28:52.180Z,48.23
2022-11-21T20:31:21.981Z,46.20
2022-11-21T20:33:50.880Z,50.03
2022-11-21T20:36:20.337Z,47.50
2022-11-21T20:38:55.257Z,43.35
2022-11-21T20:41:25.253Z,41.97
2022-11-21T20:44:53.148Z,47.67
2022-11-21T20:46:43.507Z,39.83
2022-11-21T20:49:10.757Z,52.20
2022-11-21T20:54:24.663Z,38.47
2022-11-21T20:56:51.720Z,35.87
2022-11-21T20:59:18.590Z,39.80
2022-11-21T21:01:45.777Z,52.43
2022-11-21T21:04:12.642Z,56.83
2022-11-21T21:06:39.776Z,50.90
2022-11-21T21:09:06.657Z,55.47
2022-11-21T21:14:22.320Z,55.67
2022-11-21T21:16:49.954Z,56.55
2022-11-21T21:19:17.209Z,61.53
2022-11-21T21:21:44.350Z,65.87
2022-11-21T21:24:11.999Z,58.77
2022-11-21T21:26:43.364Z,54.07
2022-11-21T21:29:13.011Z,76.57
2022-11-21T21:31:44.074Z,56.47
2022-11-21T21:34:16.605Z,40.30
2022-11-21T21:36:43.784Z,34.37
2022-11-21T21:39:10.563Z,30.40
2022-11-21T21:41:40.229Z,28.10
2022-11-21T21:44:07.221Z,43.33
2022-11-21T21:46:34.395Z,80.27
2022-11-21T21:49:01.345Z,36.87
2022-11-21T21:51:30.234Z,25.70
2022-11-21T21:53:58.824Z,26.27
2022-11-21T21:56:28.044Z,29.08
2022-11-21T21:58:56.407Z,31.90
2022-11-21T22:01:25.905Z,42.70
2022-11-21T22:03:54.853Z,63.60
2022-11-21T22:06:22.406Z,59.57
2022-11-21T22:08:50.216Z,60.67
2022-11-21T22:11:25.544Z,80.50
2022-11-21T22:13:57.923Z,63.20
2022-11-21T22:16:25.628Z,65.07
2022-11-21T22:18:53.083Z,66.23
2022-11-21T22:21:26.776Z,53.73
2022-11-21T22:24:24.688Z,51.43
2022-11-21T22:26:41.671Z,50.30
2022-11-21T22:29:08.580Z,50.50
2022-11-21T22:31:35.689Z,49.33
2022-11-21T22:34:02.646Z,60.60
2022-11-21T22:36:29.703Z,62.03
2022-11-21T22:38:56.787Z,52.80
2022-11-21T22:41:26.580Z,60.60
2022-11-21T22:43:55.719Z,49.27
2022-11-21T22:46:24.002Z,46.13
2022-11-21T22:48:51.154Z,49.03
2022-11-21T22:51:23.978Z,49.30
2022-11-21T22:53:51.325Z,46.20
2022-11-21T22:56:20.669Z,49.00
2022-11-21T23:01:16.007Z,46.50
2022-11-21T23:03:43.796Z,45.90
2022-11-21T23:06:17.186Z,45.93
2022-11-21T23:08:44.501Z,45.33
2022-11-21T23:11:21.655Z,48.83
2022-11-21T23:13:49.296Z,44.93
2022-11-21T23:16:17.246Z,46.63
2022-11-21T23:18:44.909Z,45.63
2022-11-21T23:21:13.312Z,42.33
2022-11-21T23:23:40.360Z,54.43
2022-11-21T23:26:07.964Z,46.20
2022-11-21T23:28:34.741Z,51.17
2022-11-21T23:31:01.932Z,43.73
2022-11-21T23:33:28.682Z,51.70
2022-11-21T23:35:55.869Z,34.47
2022-11-21T23:38:22.629Z,42.80
2022-11-21T23:40:50.133Z,34.37
2022-11-21T23:43:18.379Z,30.37
2022-11-21T23:45:50.368Z,34.97
2022-11-21T23:48:17.418Z,34.93
2022-11-21T23:50:45.813Z,31.57
2022-11-21T23:53:12.901Z,27.40
2022-11-21T23:55:39.931Z,30.60
2022-11-21T23:58:06.741Z,23.43
